createdAt,value
2019-05-29T00:01:32.955Z,8.50
2019-05-29T00:04:01.284Z,8.50
2019-05-29T00:06:29.618Z,8.60
2019-05-29T00:08:58.254Z,8.70
2019-05-29T00:11:26.571Z,8.90
2019-05-29T00:13:54.905Z,9.00
2019-05-29T00:16:23.345Z,9.20
2019-05-29T00:18:51.709Z,9.20
2019-05-29T00:21:20.012Z,9.30
2019-05-29T00:23:48.527Z,9.20
2019-05-29T00:26:16.845Z,9.20
2019-05-29T00:28:45.208Z,9.20
2019-05-29T00:31:13.992Z,9.30
2019-05-29T00:33:41.951Z,9.20
2019-05-29T00:36:10.443Z,9.20
2019-05-29T00:38:38.947Z,9.20
2019-05-29T00:41:07.276Z,9.10
2019-05-29T00:43:35.676Z,9.10
2019-05-29T00:46:04.393Z,9.10
2019-05-29T00:48:32.763Z,9.10
2019-05-29T00:51:01.106Z,9.10
2019-05-29T00:53:29.634Z,9.00
2019-05-29T00:55:57.939Z,9.00
2019-05-29T00:58:26.254Z,9.00
2019-05-29T01:00:54.824Z,8.90
2019-05-29T01:03:23.463Z,8.90
2019-05-29T01:05:51.794Z,8.80
2019-05-29T01:08:20.545Z,8.80
2019-05-29T01:10:48.759Z,8.80
2019-05-29T01:13:17.230Z,8.80
2019-05-29T01:15:45.717Z,8.90
2019-05-29T01:18:14.051Z,8.90
2019-05-29T01:20:42.353Z,8.90
2019-05-29T01:23:12.123Z,8.80
2019-05-29T01:25:40.078Z,8.80
2019-05-29T01:28:08.390Z,8.80
2019-05-29T01:30:36.707Z,8.80
2019-05-29T01:33:05.044Z,8.70
2019-05-29T01:35:33.418Z,8.70
2019-05-29T01:38:01.942Z,8.60
2019-05-29T01:40:30.275Z,8.60
2019-05-29T01:42:58.654Z,8.60
2019-05-29T01:45:27.721Z,8.50
2019-05-29T01:47:55.349Z,8.50
2019-05-29T01:50:23.781Z,8.50
2019-05-29T01:52:52.200Z,8.50
2019-05-29T01:55:21.656Z,8.50
2019-05-29T01:57:49.005Z,8.40
2019-05-29T02:00:17.931Z,8.40
2019-05-29T02:02:46.331Z,8.40
2019-05-29T02:05:15.768Z,8.30
2019-05-29T02:07:43.401Z,8.30
2019-05-29T02:10:11.823Z,8.30
2019-05-29T02:12:40.216Z,8.30
2019-05-29T02:15:23.153Z,8.20
2019-05-29T02:17:37.414Z,8.20
2019-05-29T02:20:06.228Z,8.20
2019-05-29T02:22:34.533Z,8.10
2019-05-29T02:25:02.880Z,8.10
2019-05-29T02:27:31.213Z,8.10
2019-05-29T02:29:59.590Z,8.00
2019-05-29T02:32:28.041Z,8.00
2019-05-29T02:34:56.245Z,8.00
2019-05-29T02:37:31.245Z,7.90
2019-05-29T02:39:59.610Z,7.90
2019-05-29T02:42:29.168Z,7.90
2019-05-29T02:44:56.472Z,7.90
2019-05-29T02:47:26.047Z,7.90
2019-05-29T02:49:53.159Z,7.80
2019-05-29T02:52:21.959Z,7.80
2019-05-29T02:54:49.995Z,7.80
2019-05-29T02:57:18.397Z,7.80
2019-05-29T02:59:46.972Z,7.80
2019-05-29T03:02:15.305Z,7.80
2019-05-29T03:04:43.685Z,7.80
2019-05-29T03:07:12.056Z,7.80
2019-05-29T03:09:40.488Z,7.80
2019-05-29T03:12:08.838Z,7.80
2019-05-29T03:14:37.552Z,7.80
2019-05-29T03:17:05.910Z,7.80
2019-05-29T03:19:34.753Z,7.80
2019-05-29T03:22:02.834Z,7.80
2019-05-29T03:24:32.751Z,7.80
2019-05-29T03:26:59.530Z,7.90
2019-05-29T03:29:29.951Z,7.90
2019-05-29T03:31:56.820Z,7.90
2019-05-29T03:34:28.491Z,7.90
2019-05-29T03:36:53.555Z,7.90
2019-05-29T03:39:22.180Z,7.90
2019-05-29T03:41:50.534Z,7.90
2019-05-29T03:44:18.997Z,7.90
2019-05-29T03:46:47.331Z,8.00
2019-05-29T03:49:15.708Z,8.00
2019-05-29T03:51:44.141Z,8.10
2019-05-29T03:54:12.449Z,8.10
2019-05-29T03:56:40.853Z,8.10
2019-05-29T03:59:09.454Z,8.20
2019-05-29T04:01:37.802Z,8.20
2019-05-29T04:04:06.353Z,8.20
2019-05-29T04:06:35.566Z,8.30
2019-05-29T04:09:03.885Z,8.30
2019-05-29T04:11:33.161Z,8.40
2019-05-29T04:14:00.793Z,8.40
2019-05-29T04:16:31.132Z,8.50
2019-05-29T04:18:57.547Z,8.60
2019-05-29T04:21:27.799Z,8.60
2019-05-29T04:23:54.460Z,8.60
2019-05-29T04:26:22.836Z,8.70
2019-05-29T04:28:51.677Z,8.70
2019-05-29T04:31:20.039Z,8.80
2019-05-29T04:33:48.415Z,8.90
2019-05-29T04:36:16.887Z,8.90
2019-05-29T04:38:45.226Z,8.90
2019-05-29T04:41:13.576Z,9.00
2019-05-29T04:43:42.054Z,9.10
2019-05-29T04:46:10.366Z,9.10
2019-05-29T04:48:40.375Z,9.10
2019-05-29T04:51:07.291Z,9.20
2019-05-29T04:53:35.905Z,9.30
2019-05-29T04:56:03.973Z,9.30
2019-05-29T04:58:32.826Z,9.40
2019-05-29T05:01:00.751Z,9.40
2019-05-29T05:03:29.175Z,9.40
2019-05-29T05:05:57.664Z,9.50
2019-05-29T05:08:33.327Z,9.50
2019-05-29T05:11:01.793Z,9.60
2019-05-29T05:13:30.113Z,9.60
2019-05-29T05:15:58.499Z,9.70
2019-05-29T05:18:26.970Z,9.80
2019-05-29T05:20:55.308Z,9.90
2019-05-29T05:23:23.687Z,10.10
2019-05-29T05:25:52.376Z,10.10
2019-05-29T05:28:20.723Z,10.20
2019-05-29T05:30:49.026Z,10.20
2019-05-29T05:33:17.414Z,10.20
2019-05-29T05:35:45.788Z,10.30
2019-05-29T05:38:14.147Z,10.40
2019-05-29T05:40:43.286Z,10.40
2019-05-29T05:43:23.200Z,10.50
2019-05-29T05:45:39.693Z,10.50
2019-05-29T05:48:08.554Z,10.50
2019-05-29T05:50:37.270Z,10.60
2019-05-29T05:53:05.543Z,10.70
2019-05-29T05:55:35.443Z,10.80
2019-05-29T05:58:02.787Z,10.90
2019-05-29T06:00:32.142Z,11.10
2019-05-29T06:03:00.611Z,11.40
2019-05-29T06:05:31.920Z,11.60
2019-05-29T06:07:59.114Z,11.90
2019-05-29T06:10:27.665Z,12.10
2019-05-29T06:12:55.991Z,12.20
2019-05-29T06:15:24.360Z,12.50
2019-05-29T06:18:17.024Z,12.50
2019-05-29T06:20:21.451Z,12.50
2019-05-29T06:22:49.790Z,12.40
2019-05-29T06:25:18.283Z,12.40
2019-05-29T06:27:46.622Z,12.50
2019-05-29T06:30:14.998Z,12.60
2019-05-29T06:32:43.707Z,12.60
2019-05-29T06:35:12.054Z,12.50
2019-05-29T06:37:41.672Z,12.70
2019-05-29T06:40:09.013Z,12.70
2019-05-29T06:42:37.838Z,12.70
2019-05-29T06:45:06.640Z,12.80
2019-05-29T06:47:36.259Z,12.80
2019-05-29T06:50:03.297Z,13.00
2019-05-29T06:52:31.765Z,13.20
2019-05-29T06:55:00.280Z,13.00
2019-05-29T06:57:28.793Z,13.00
2019-05-29T06:59:57.132Z,12.90
2019-05-29T07:02:25.920Z,13.00
2019-05-29T07:04:54.275Z,13.20
2019-05-29T07:07:22.657Z,13.40
2019-05-29T07:09:51.514Z,13.20
2019-05-29T07:12:19.803Z,13.00
2019-05-29T07:14:49.096Z,13.20
2019-05-29T07:17:17.708Z,13.50
2019-05-29T07:19:57.562Z,13.60
2019-05-29T07:22:14.443Z,13.70
2019-05-29T07:24:43.499Z,13.60
2019-05-29T07:27:13.576Z,14.00
2019-05-29T07:29:41.141Z,13.80
2019-05-29T07:32:08.759Z,13.70
2019-05-29T07:34:51.116Z,13.80
2019-05-29T07:37:05.591Z,14.00
2019-05-29T07:39:34.347Z,14.10
2019-05-29T07:42:02.660Z,14.50
2019-05-29T07:44:30.993Z,14.50
2019-05-29T07:46:59.416Z,14.70
2019-05-29T07:49:38.527Z,14.90
2019-05-29T07:51:56.169Z,14.60
2019-05-29T07:54:24.775Z,14.80
2019-05-29T07:56:53.104Z,14.80
2019-05-29T07:59:21.413Z,14.80
2019-05-29T08:01:49.914Z,15.00
2019-05-29T08:04:18.435Z,14.90
2019-05-29T08:06:51.279Z,14.90
2019-05-29T08:09:15.221Z,14.90
2019-05-29T08:11:43.677Z,15.00
2019-05-29T08:14:12.048Z,15.10
2019-05-29T08:16:41.838Z,15.00
2019-05-29T08:19:08.960Z,15.00
2019-05-29T08:21:37.303Z,15.30
2019-05-29T08:24:05.771Z,15.40
2019-05-29T08:26:34.163Z,15.40
2019-05-29T08:29:02.488Z,15.20
2019-05-29T08:31:30.907Z,15.30
2019-05-29T08:33:59.313Z,15.50
2019-05-29T08:36:27.656Z,15.70
2019-05-29T08:38:56.215Z,15.70
2019-05-29T08:41:24.564Z,15.80
2019-05-29T08:43:53.005Z,16.10
2019-05-29T08:46:21.664Z,16.10
2019-05-29T08:48:50.195Z,15.80
2019-05-29T08:51:18.495Z,15.80
2019-05-29T08:53:48.747Z,16.10
2019-05-29T08:56:15.667Z,16.20
2019-05-29T08:58:44.402Z,16.10
2019-05-29T09:01:12.608Z,16.00
2019-05-29T09:03:42.664Z,15.70
2019-05-29T09:06:13.359Z,15.70
2019-05-29T09:08:37.842Z,15.60
2019-05-29T09:11:06.260Z,15.90
2019-05-29T09:13:34.614Z,15.60
2019-05-29T09:16:03.259Z,16.00
2019-05-29T09:18:31.587Z,15.80
2019-05-29T09:21:06.627Z,15.80
2019-05-29T09:23:35.013Z,16.00
2019-05-29T09:26:14.186Z,16.00
2019-05-29T09:28:31.150Z,16.20
2019-05-29T09:30:59.499Z,15.80
2019-05-29T09:33:27.869Z,16.00
2019-05-29T09:35:56.612Z,16.00
2019-05-29T09:38:25.136Z,16.40
2019-05-29T09:40:53.364Z,16.10
2019-05-29T09:43:27.005Z,16.00
2019-05-29T09:45:50.241Z,16.40
2019-05-29T09:48:23.085Z,16.50
2019-05-29T09:50:50.463Z,16.50
2019-05-29T09:53:15.697Z,16.00
2019-05-29T09:55:44.079Z,15.90
2019-05-29T09:58:12.937Z,16.10
2019-05-29T10:00:41.283Z,15.80
2019-05-29T10:03:09.618Z,16.00
2019-05-29T10:05:38.172Z,16.00
2019-05-29T10:08:06.587Z,15.80
2019-05-29T10:10:34.957Z,16.00
2019-05-29T10:13:04.508Z,15.90
2019-05-29T10:15:32.253Z,16.10
2019-05-29T10:18:00.716Z,16.50
2019-05-29T10:20:29.267Z,16.20
2019-05-29T10:22:58.883Z,16.30
2019-05-29T10:25:26.026Z,16.10
2019-05-29T10:27:54.848Z,16.20
2019-05-29T10:30:23.237Z,16.30
2019-05-29T10:32:52.943Z,16.60
2019-05-29T10:35:20.676Z,16.70
2019-05-29T10:37:49.032Z,16.50
2019-05-29T10:40:17.419Z,16.30
2019-05-29T10:42:46.913Z,16.80
2019-05-29T10:45:14.405Z,17.00
2019-05-29T10:47:43.277Z,16.90
2019-05-29T10:50:11.788Z,17.10
2019-05-29T10:52:40.160Z,16.80
2019-05-29T10:55:08.543Z,16.50
2019-05-29T10:57:37.225Z,16.50
2019-05-29T11:00:05.720Z,16.00
2019-05-29T11:02:34.149Z,16.00
2019-05-29T11:05:02.511Z,16.40
2019-05-29T11:07:30.846Z,17.00
2019-05-29T11:09:59.160Z,16.90
2019-05-29T11:12:27.965Z,17.10
2019-05-29T11:14:56.950Z,16.30
2019-05-29T11:17:24.959Z,15.70
2019-05-29T11:19:53.616Z,15.50
2019-05-29T11:22:26.083Z,16.20
2019-05-29T11:24:50.277Z,16.50
2019-05-29T11:27:19.009Z,16.50
2019-05-29T11:29:48.731Z,16.30
2019-05-29T11:32:15.946Z,15.80
2019-05-29T11:34:44.349Z,16.10
2019-05-29T11:37:12.661Z,16.30
2019-05-29T11:39:41.011Z,16.40
2019-05-29T11:42:26.066Z,16.30
2019-05-29T11:44:38.117Z,16.60
2019-05-29T11:47:06.647Z,16.60
2019-05-29T11:49:34.971Z,16.50
2019-05-29T11:52:22.862Z,16.50
2019-05-29T11:54:31.722Z,16.40
2019-05-29T11:57:00.216Z,16.20
2019-05-29T11:59:28.629Z,16.00
2019-05-29T12:01:57.365Z,15.80
2019-05-29T12:04:26.956Z,15.30
2019-05-29T12:06:55.318Z,14.90
2019-05-29T12:09:32.073Z,14.70
2019-05-29T12:11:51.812Z,14.80
2019-05-29T12:14:19.527Z,15.00
2019-05-29T12:16:47.869Z,15.30
2019-05-29T12:19:16.453Z,15.20
2019-05-29T12:21:44.843Z,15.50
2019-05-29T12:24:13.173Z,15.70
2019-05-29T12:26:41.863Z,15.80
2019-05-29T12:29:11.913Z,16.10
2019-05-29T12:31:38.809Z,16.10
2019-05-29T12:34:18.789Z,16.20
2019-05-29T12:36:36.059Z,15.80
2019-05-29T12:39:05.794Z,15.90
2019-05-29T12:41:34.523Z,16.00
2019-05-29T12:44:03.676Z,15.90
2019-05-29T12:46:31.338Z,16.10
2019-05-29T12:48:59.968Z,16.20
2019-05-29T12:51:28.468Z,16.40
2019-05-29T12:53:57.905Z,16.30
2019-05-29T12:56:25.245Z,16.40
2019-05-29T12:58:54.134Z,16.30
2019-05-29T13:01:22.048Z,16.40
2019-05-29T13:03:50.678Z,16.40
2019-05-29T13:06:19.041Z,16.30
2019-05-29T13:08:47.441Z,15.90
2019-05-29T13:11:15.983Z,16.10
2019-05-29T13:13:44.335Z,16.30
2019-05-29T13:16:12.680Z,16.20
2019-05-29T13:18:41.204Z,16.40
2019-05-29T13:21:09.532Z,16.30
2019-05-29T13:23:45.045Z,16.20
2019-05-29T13:26:06.554Z,16.00
2019-05-29T13:28:34.929Z,15.50
2019-05-29T13:31:04.565Z,15.20
2019-05-29T13:33:32.002Z,15.60
2019-05-29T13:36:00.482Z,15.90
2019-05-29T13:38:28.864Z,16.10
2019-05-29T13:40:58.409Z,16.10
2019-05-29T13:43:25.977Z,16.00
2019-05-29T13:45:54.351Z,15.70
2019-05-29T13:48:23.465Z,15.30
2019-05-29T13:50:51.243Z,15.20
2019-05-29T13:53:19.746Z,15.40
2019-05-29T13:55:48.207Z,15.80
2019-05-29T13:58:16.625Z,16.10
2019-05-29T14:00:44.969Z,16.20
2019-05-29T14:03:13.611Z,15.80
2019-05-29T14:05:41.953Z,15.40
2019-05-29T14:08:10.286Z,15.30
2019-05-29T14:10:38.905Z,15.10
2019-05-29T14:13:07.500Z,15.10
2019-05-29T14:15:35.773Z,15.00
2019-05-29T14:18:04.983Z,15.00
2019-05-29T14:20:33.181Z,15.20
2019-05-29T14:23:01.590Z,15.40
2019-05-29T14:25:36.533Z,15.40
2019-05-29T14:28:04.942Z,15.40
2019-05-29T14:30:33.333Z,15.40
2019-05-29T14:33:02.342Z,15.10
2019-05-29T14:35:30.218Z,15.20
2019-05-29T14:37:58.558Z,15.20
2019-05-29T14:40:27.175Z,15.00
2019-05-29T14:42:55.514Z,15.00
2019-05-29T14:45:24.136Z,15.00
2019-05-29T14:47:53.212Z,15.20
2019-05-29T14:50:21.569Z,15.40
2019-05-29T14:52:50.094Z,15.50
2019-05-29T14:55:18.947Z,15.70
2019-05-29T14:57:47.301Z,15.60
2019-05-29T15:00:24.732Z,15.40
2019-05-29T15:02:44.694Z,15.50
2019-05-29T15:05:14.718Z,15.50
2019-05-29T15:07:41.546Z,15.50
2019-05-29T15:10:22.766Z,15.80
2019-05-29T15:12:38.663Z,16.00
2019-05-29T15:15:08.629Z,15.90
2019-05-29T15:17:35.885Z,15.90
2019-05-29T15:20:05.504Z,15.70
2019-05-29T15:22:33.427Z,15.30
2019-05-29T15:25:13.444Z,15.30
2019-05-29T15:27:30.544Z,15.50
2019-05-29T15:29:58.947Z,15.50
2019-05-29T15:32:27.768Z,15.40
2019-05-29T15:34:56.164Z,15.40
2019-05-29T15:37:25.341Z,15.60
2019-05-29T15:39:54.071Z,15.50
2019-05-29T15:42:22.433Z,15.30
2019-05-29T15:44:50.965Z,15.20
2019-05-29T15:47:19.640Z,15.10
2019-05-29T15:49:47.949Z,15.00
2019-05-29T15:52:17.407Z,15.20
2019-05-29T15:54:45.088Z,15.50
2019-05-29T15:57:13.410Z,15.70
2019-05-29T15:59:41.814Z,15.90
2019-05-29T16:02:11.469Z,15.80
2019-05-29T16:04:38.754Z,15.80
2019-05-29T16:07:07.861Z,15.90
2019-05-29T16:09:35.821Z,15.90
2019-05-29T16:12:04.143Z,15.80
2019-05-29T16:14:32.520Z,15.90
2019-05-29T16:17:01.280Z,15.90
2019-05-29T16:19:29.829Z,15.90
2019-05-29T16:21:58.191Z,16.00
2019-05-29T16:24:26.857Z,15.90
2019-05-29T16:27:08.036Z,15.70
2019-05-29T16:29:23.617Z,15.70
2019-05-29T16:31:52.490Z,15.50
2019-05-29T16:34:21.949Z,15.60
2019-05-29T16:36:49.366Z,15.60
2019-05-29T16:39:19.695Z,15.70
2019-05-29T16:41:46.413Z,15.70
2019-05-29T16:44:16.164Z,15.70
2019-05-29T16:46:43.331Z,15.70
2019-05-29T16:49:12.515Z,15.70
2019-05-29T16:51:42.111Z,15.70
2019-05-29T16:54:08.795Z,15.70
2019-05-29T16:56:37.319Z,15.70
2019-05-29T16:59:06.569Z,15.60
2019-05-29T17:01:35.035Z,15.50
2019-05-29T17:04:03.582Z,15.50
2019-05-29T17:06:32.012Z,15.40
2019-05-29T17:09:00.407Z,15.40
2019-05-29T17:11:28.864Z,15.40
2019-05-29T17:13:57.217Z,15.50
2019-05-29T17:16:25.612Z,15.50
2019-05-29T17:18:54.142Z,15.40
2019-05-29T17:21:22.819Z,15.30
2019-05-29T17:23:50.918Z,15.30
2019-05-29T17:26:19.361Z,15.40
2019-05-29T17:28:47.740Z,15.50
2019-05-29T17:31:16.866Z,15.30
2019-05-29T17:33:44.635Z,15.30
2019-05-29T17:36:12.995Z,15.30
2019-05-29T17:38:41.396Z,15.30
2019-05-29T17:41:09.840Z,15.10
2019-05-29T17:43:38.170Z,15.10
2019-05-29T17:46:06.486Z,15.10
2019-05-29T17:48:34.950Z,15.00
2019-05-29T17:51:03.306Z,15.00
2019-05-29T17:53:31.667Z,15.00
2019-05-29T17:56:00.248Z,15.00
2019-05-29T17:58:28.627Z,14.90
2019-05-29T18:00:56.930Z,14.80
2019-05-29T18:03:26.332Z,14.80
2019-05-29T18:05:53.764Z,14.70
2019-05-29T18:08:22.895Z,14.70
2019-05-29T18:10:50.955Z,14.70
2019-05-29T18:13:19.305Z,14.60
2019-05-29T18:15:47.730Z,14.60
2019-05-29T18:18:17.482Z,14.60
2019-05-29T18:20:44.820Z,14.50
2019-05-29T18:23:13.214Z,14.50
2019-05-29T18:25:41.716Z,14.50
2019-05-29T18:28:10.052Z,14.40
2019-05-29T18:30:38.501Z,14.30
2019-05-29T18:33:06.921Z,14.20
2019-05-29T18:35:35.337Z,14.10
2019-05-29T18:38:03.694Z,14.00
2019-05-29T18:40:32.585Z,13.90
2019-05-29T18:43:00.734Z,13.80
2019-05-29T18:45:29.442Z,13.70
2019-05-29T18:47:57.570Z,13.60
2019-05-29T18:50:25.904Z,13.50
2019-05-29T18:52:54.254Z,13.40
2019-05-29T18:55:22.856Z,13.30
2019-05-29T18:57:51.249Z,13.20
2019-05-29T19:00:19.974Z,13.10
2019-05-29T19:02:48.478Z,13.00
2019-05-29T19:05:16.894Z,12.90
2019-05-29T19:07:45.349Z,12.80
2019-05-29T19:10:13.985Z,12.70
2019-05-29T19:12:42.320Z,12.70
2019-05-29T19:15:10.668Z,12.60
2019-05-29T19:17:40.305Z,12.50
2019-05-29T19:20:08.719Z,12.40
2019-05-29T19:22:37.120Z,12.20
2019-05-29T19:25:05.780Z,12.10
2019-05-29T19:27:41.479Z,12.00
2019-05-29T19:30:02.632Z,11.90
2019-05-29T19:32:32.274Z,11.80
2019-05-29T19:34:59.724Z,11.70
2019-05-29T19:37:28.089Z,11.60
2019-05-29T19:39:56.510Z,11.60
2019-05-29T19:42:26.093Z,11.40
2019-05-29T19:44:53.416Z,11.40
2019-05-29T19:47:28.614Z,11.30
2019-05-29T19:49:56.986Z,11.20
2019-05-29T19:52:25.471Z,11.10
2019-05-29T19:54:53.936Z,11.10
2019-05-29T19:57:22.319Z,10.90
2019-05-29T19:59:50.620Z,10.80
2019-05-29T20:02:18.982Z,10.70
2019-05-29T20:04:47.920Z,10.60
2019-05-29T20:07:16.320Z,10.50
2019-05-29T20:09:44.856Z,10.30
2019-05-29T20:12:13.202Z,10.20
2019-05-29T20:14:41.587Z,10.10
2019-05-29T20:17:09.992Z,10.10
2019-05-29T20:19:40.851Z,10.00
2019-05-29T20:22:06.770Z,9.90
2019-05-29T20:24:35.300Z,9.80
2019-05-29T20:27:03.687Z,9.80
2019-05-29T20:29:32.402Z,9.60
2019-05-29T20:32:00.649Z,9.60
2019-05-29T20:34:29.045Z,9.60
2019-05-29T20:36:57.478Z,9.60
2019-05-29T20:39:26.136Z,9.50
2019-05-29T20:41:54.499Z,9.40
2019-05-29T20:44:22.862Z,9.30
2019-05-29T20:46:51.381Z,9.20
2019-05-29T20:49:19.818Z,9.10
2019-05-29T20:51:48.134Z,9.00
2019-05-29T20:54:16.673Z,8.90
2019-05-29T20:56:45.069Z,8.80
2019-05-29T20:59:13.420Z,8.70
2019-05-29T21:01:46.058Z,8.60
2019-05-29T21:04:10.376Z,8.50
2019-05-29T21:06:38.733Z,8.40
2019-05-29T21:09:07.453Z,8.20
2019-05-29T21:11:35.822Z,8.10
2019-05-29T21:14:04.186Z,8.10
2019-05-29T21:16:33.675Z,8.10
2019-05-29T21:19:01.034Z,8.10
2019-05-29T21:21:29.506Z,8.00
2019-05-29T21:23:57.929Z,7.90
2019-05-29T21:26:26.328Z,7.80
2019-05-29T21:28:54.700Z,7.70
2019-05-29T21:31:23.479Z,7.80
2019-05-29T21:33:51.866Z,7.70
2019-05-29T21:36:20.227Z,7.60
2019-05-29T21:38:48.766Z,7.50
2019-05-29T21:41:17.144Z,7.50
2019-05-29T21:43:45.485Z,7.40
2019-05-29T21:46:14.059Z,7.30
2019-05-29T21:48:43.372Z,7.30
2019-05-29T21:51:10.883Z,7.30
2019-05-29T21:53:39.647Z,7.20
2019-05-29T21:56:08.076Z,7.20
2019-05-29T21:58:37.492Z,7.20
2019-05-29T22:01:05.215Z,7.10
2019-05-29T22:03:33.619Z,7.10
2019-05-29T22:06:01.958Z,7.20
2019-05-29T22:08:31.035Z,7.20
2019-05-29T22:10:59.661Z,7.20
2019-05-29T22:13:27.723Z,7.20
2019-05-29T22:15:56.886Z,7.20
2019-05-29T22:18:24.992Z,7.20
2019-05-29T22:20:53.352Z,7.10
2019-05-29T22:23:21.903Z,6.90
2019-05-29T22:25:51.153Z,6.80
2019-05-29T22:28:18.564Z,6.80
2019-05-29T22:30:47.340Z,6.80
2019-05-29T22:33:15.665Z,6.70
2019-05-29T22:35:44.200Z,6.70
2019-05-29T22:38:12.596Z,6.60
2019-05-29T22:40:40.900Z,6.60
2019-05-29T22:43:09.262Z,6.60
2019-05-29T22:45:37.955Z,6.60
2019-05-29T22:48:06.276Z,6.60
2019-05-29T22:50:34.627Z,6.60
2019-05-29T22:53:03.378Z,6.50
2019-05-29T22:55:31.816Z,6.50
2019-05-29T22:58:00.155Z,6.40
2019-05-29T23:00:28.646Z,6.40
2019-05-29T23:02:58.046Z,6.30
2019-05-29T23:05:25.394Z,6.30
2019-05-29T23:07:54.183Z,6.20
2019-05-29T23:10:22.362Z,6.20
2019-05-29T23:12:50.725Z,6.10
2019-05-29T23:15:19.232Z,6.10
2019-05-29T23:17:47.561Z,6.10
2019-05-29T23:20:15.951Z,6.30
2019-05-29T23:22:44.386Z,6.50
2019-05-29T23:25:12.713Z,6.50
2019-05-29T23:27:41.026Z,6.50
2019-05-29T23:30:09.509Z,6.50
2019-05-29T23:32:37.869Z,6.50
2019-05-29T23:35:06.297Z,6.40
2019-05-29T23:37:34.732Z,6.50
2019-05-29T23:40:03.494Z,6.50
2019-05-29T23:42:31.456Z,6.50
2019-05-29T23:44:59.973Z,6.60
2019-05-29T23:47:28.300Z,6.60
2019-05-29T23:49:57.553Z,6.60
2019-05-29T23:52:25.036Z,6.70
2019-05-29T23:54:53.604Z,6.70
2019-05-29T23:57:21.712Z,6.70
